createdAt,value
2022-12-18T00:02:08.720Z,44.38
2022-12-18T00:04:46.750Z,45.35
2022-12-18T00:08:09.383Z,43.90
2022-12-18T00:11:07.084Z,45.78
2022-12-18T00:13:47.966Z,42.35
2022-12-18T00:20:05.425Z,43.65
2022-12-18T00:25:24.808Z,44.55
2022-12-18T00:31:22.660Z,43.80
2022-12-18T00:36:59.456Z,43.38
2022-12-18T00:42:56.015Z,42.85
2022-12-18T00:45:33.461Z,45.10
2022-12-18T00:48:17.433Z,42.00
2022-12-18T00:51:27.861Z,45.72
2022-12-18T00:53:58.696Z,44.08
2022-12-18T01:00:00.575Z,42.33
2022-12-18T01:02:37.062Z,42.25
2022-12-18T01:05:09.920Z,42.72
2022-12-18T01:07:41.379Z,41.63
2022-12-18T01:10:37.013Z,41.85
2022-12-18T01:13:26.772Z,40.45
2022-12-18T01:18:57.164Z,40.45
2022-12-18T01:21:29.133Z,38.47
2022-12-18T01:27:10.688Z,38.97
2022-12-18T01:29:55.780Z,39.95
2022-12-18T01:32:39.552Z,40.10
2022-12-18T01:35:09.782Z,40.90
2022-12-18T01:37:39.399Z,41.03
2022-12-18T01:40:20.106Z,39.03
2022-12-18T01:43:03.469Z,37.80
2022-12-18T01:45:32.287Z,40.22
2022-12-18T01:48:08.954Z,39.92
2022-12-18T01:50:41.132Z,37.90
2022-12-18T01:53:25.810Z,37.92
2022-12-18T01:58:48.458Z,39.67
2022-12-18T02:01:17.271Z,37.35
2022-12-18T02:03:47.384Z,38.28
2022-12-18T02:06:30.687Z,38.47
2022-12-18T02:09:39.826Z,37.63
2022-12-18T02:12:18.269Z,37.95
2022-12-18T02:15:00.037Z,29.13
2022-12-18T02:17:37.802Z,38.45
2022-12-18T02:20:22.720Z,38.28
2022-12-18T02:23:17.577Z,41.10
2022-12-18T02:26:22.407Z,38.55
2022-12-18T02:28:55.929Z,38.50
2022-12-18T02:31:28.290Z,38.58
2022-12-18T02:33:57.588Z,39.28
2022-12-18T02:36:40.488Z,39.13
2022-12-18T02:39:13.292Z,38.17
2022-12-18T02:41:53.937Z,37.70
2022-12-18T02:44:27.681Z,38.75
2022-12-18T02:50:00.445Z,38.25
2022-12-18T02:52:42.646Z,37.55
2022-12-18T02:55:28.587Z,37.83
2022-12-18T02:58:09.425Z,39.58
2022-12-18T03:00:42.635Z,38.03
2022-12-18T03:03:18.603Z,39.45
2022-12-18T03:06:01.558Z,40.05
2022-12-18T03:08:42.064Z,40.15
2022-12-18T03:11:17.194Z,38.88
2022-12-18T03:13:50.482Z,41.53
2022-12-18T03:16:24.753Z,40.67
2022-12-18T03:19:06.025Z,38.00
2022-12-18T03:21:41.286Z,40.55
2022-12-18T03:24:16.936Z,39.67
2022-12-18T03:26:51.657Z,41.80
2022-12-18T03:29:26.247Z,41.17
2022-12-18T03:32:06.599Z,41.35
2022-12-18T03:34:39.745Z,29.70
2022-12-18T03:37:08.030Z,42.25
2022-12-18T03:39:36.378Z,40.58
2022-12-18T03:42:11.566Z,39.17
2022-12-18T03:44:46.175Z,40.30
2022-12-18T03:47:20.995Z,40.85
2022-12-18T03:49:52.649Z,40.67
2022-12-18T03:52:25.275Z,40.90
2022-12-18T03:54:58.878Z,41.38
2022-12-18T03:57:32.013Z,41.47
2022-12-18T04:00:09.184Z,41.13
2022-12-18T04:02:42.192Z,42.83
2022-12-18T04:05:11.996Z,41.92
2022-12-18T04:07:40.321Z,42.67
2022-12-18T04:10:10.452Z,43.22
2022-12-18T04:12:38.674Z,42.67
2022-12-18T04:15:12.254Z,41.85
2022-12-18T04:17:39.857Z,41.97
2022-12-18T04:20:10.425Z,41.00
2022-12-18T04:22:37.738Z,41.95
2022-12-18T04:25:05.498Z,39.90
2022-12-18T04:27:35.512Z,40.08
2022-12-18T04:30:05.577Z,39.80
2022-12-18T04:32:37.118Z,37.47
2022-12-18T04:35:06.311Z,40.05
2022-12-18T04:37:37.549Z,38.85
2022-12-18T04:40:05.349Z,37.95
2022-12-18T04:42:35.328Z,36.00
2022-12-18T04:45:02.397Z,35.97
2022-12-18T04:47:42.067Z,36.97
2022-12-18T04:50:09.702Z,36.08
2022-12-18T04:52:42.889Z,33.67
2022-12-18T04:55:10.038Z,36.10
2022-12-18T04:57:38.507Z,35.85
2022-12-18T05:00:06.660Z,35.40
2022-12-18T05:02:38.390Z,38.05
2022-12-18T05:05:06.802Z,35.97
2022-12-18T05:07:35.221Z,35.85
2022-12-18T05:10:04.465Z,35.92
2022-12-18T05:12:33.267Z,36.00
2022-12-18T05:15:00.245Z,35.03
2022-12-18T05:17:27.082Z,36.30
2022-12-18T05:19:55.592Z,33.75
2022-12-18T05:22:22.892Z,34.85
2022-12-18T05:24:50.247Z,34.67
2022-12-18T05:27:17.293Z,32.33
2022-12-18T05:29:44.415Z,33.63
2022-12-18T05:32:13.476Z,32.65
2022-12-18T05:34:40.355Z,31.27
2022-12-18T05:37:10.666Z,32.75
2022-12-18T05:39:39.296Z,31.95
2022-12-18T05:42:09.736Z,31.70
2022-12-18T05:44:36.743Z,30.63
2022-12-18T05:47:03.947Z,32.08
2022-12-18T05:49:31.292Z,31.50
2022-12-18T05:51:58.069Z,30.38
2022-12-18T05:54:28.108Z,29.45
2022-12-18T05:56:55.233Z,30.42
2022-12-18T05:59:22.020Z,29.88
2022-12-18T06:01:49.425Z,29.60
2022-12-18T06:04:16.377Z,28.73
2022-12-18T06:06:43.765Z,29.65
2022-12-18T06:09:17.389Z,27.90
2022-12-18T06:11:45.694Z,28.10
2022-12-18T06:14:12.677Z,28.50
2022-12-18T06:16:39.641Z,28.60
2022-12-18T06:19:14.800Z,27.98
2022-12-18T06:21:41.594Z,28.92
2022-12-18T06:24:08.725Z,27.95
2022-12-18T06:26:38.453Z,27.35
2022-12-18T06:29:07.032Z,27.83
2022-12-18T06:31:43.592Z,28.67
2022-12-18T06:34:11.734Z,26.17
2022-12-18T06:36:38.508Z,26.88
2022-12-18T06:39:08.200Z,23.80
2022-12-18T06:41:36.231Z,26.33
2022-12-18T06:44:09.847Z,25.50
2022-12-18T06:46:37.994Z,25.60
2022-12-18T06:49:06.663Z,24.85
2022-12-18T06:51:33.515Z,25.00
2022-12-18T06:54:03.533Z,24.58
2022-12-18T06:56:30.703Z,17.88
2022-12-18T06:58:57.895Z,26.23
2022-12-18T07:01:26.380Z,23.75
2022-12-18T07:03:54.352Z,24.52
2022-12-18T07:06:26.168Z,25.15
2022-12-18T07:08:54.443Z,24.73
2022-12-18T07:11:22.898Z,24.33
2022-12-18T07:13:54.570Z,25.38
2022-12-18T07:16:25.734Z,24.70
2022-12-18T07:18:57.484Z,24.55
2022-12-18T07:21:25.679Z,23.10
2022-12-18T07:23:52.994Z,24.52
2022-12-18T07:26:24.747Z,22.90
2022-12-18T07:28:55.858Z,23.05
2022-12-18T07:31:23.047Z,24.88
2022-12-18T07:33:51.269Z,22.88
2022-12-18T07:36:20.622Z,22.17
2022-12-18T07:38:51.154Z,23.25
2022-12-18T07:41:18.508Z,22.35
2022-12-18T07:43:46.008Z,22.63
2022-12-18T07:46:16.347Z,22.48
2022-12-18T07:48:43.672Z,16.08
2022-12-18T07:51:16.675Z,22.88
2022-12-18T07:53:45.266Z,21.75
2022-12-18T07:56:31.452Z,22.38
2022-12-18T07:58:59.074Z,21.02
2022-12-18T08:01:35.078Z,21.48
2022-12-18T08:04:02.421Z,22.20
2022-12-18T08:06:36.779Z,21.45
2022-12-18T08:09:05.973Z,23.30
2022-12-18T08:11:36.857Z,20.98
2022-12-18T08:14:06.402Z,21.05
2022-12-18T08:16:41.883Z,21.15
2022-12-18T08:22:29.804Z,20.75
2022-12-18T08:25:35.183Z,21.27
2022-12-18T08:28:14.401Z,21.15
2022-12-18T08:30:48.362Z,20.50
2022-12-18T08:36:33.428Z,20.98
2022-12-18T08:39:00.511Z,22.13
2022-12-18T08:41:31.386Z,20.70
2022-12-18T08:44:01.329Z,20.08
2022-12-18T08:46:38.736Z,21.67
2022-12-18T08:49:07.526Z,20.13
2022-12-18T08:51:36.704Z,19.60
2022-12-18T08:54:04.232Z,19.70
2022-12-18T08:56:35.235Z,19.52
2022-12-18T08:59:03.344Z,17.63
2022-12-18T09:01:31.037Z,19.15
2022-12-18T09:03:58.788Z,17.08
2022-12-18T09:06:26.734Z,16.63
2022-12-18T09:08:53.894Z,17.20
2022-12-18T09:11:23.857Z,16.45
2022-12-18T09:13:53.198Z,16.00
2022-12-18T09:16:22.524Z,15.45
2022-12-18T09:18:51.805Z,16.40
2022-12-18T09:21:20.925Z,16.90
2022-12-18T09:23:50.826Z,15.73
2022-12-18T09:26:17.890Z,15.68
2022-12-18T09:28:46.890Z,16.85
2022-12-18T09:31:15.298Z,16.95
2022-12-18T09:33:42.464Z,16.60
2022-12-18T09:36:12.426Z,16.70
2022-12-18T09:38:39.898Z,15.85
2022-12-18T09:41:27.112Z,16.27
2022-12-18T09:43:58.498Z,16.30
2022-12-18T09:46:31.569Z,15.80
2022-12-18T09:49:03.479Z,15.48
2022-12-18T09:51:36.506Z,15.35
2022-12-18T09:54:08.540Z,14.90
2022-12-18T09:56:38.580Z,15.00
2022-12-18T09:59:06.095Z,14.75
2022-12-18T10:01:41.740Z,14.75
2022-12-18T10:04:11.325Z,15.13
2022-12-18T10:06:43.991Z,14.43
2022-12-18T10:09:21.757Z,15.48
2022-12-18T10:11:55.883Z,14.80
2022-12-18T10:14:30.524Z,14.35
2022-12-18T10:17:03.774Z,13.10
2022-12-18T10:19:40.657Z,12.95
2022-12-18T10:22:16.892Z,12.10
2022-12-18T10:24:51.503Z,12.75
2022-12-18T10:27:22.895Z,12.90
2022-12-18T10:29:49.919Z,13.77
2022-12-18T10:32:20.845Z,13.63
2022-12-18T10:37:18.488Z,12.50
2022-12-18T10:39:45.872Z,13.07
2022-12-18T10:42:17.927Z,13.88
2022-12-18T10:44:45.004Z,15.10
2022-12-18T10:47:17.337Z,15.18
2022-12-18T10:49:50.564Z,15.60
2022-12-18T10:52:20.583Z,15.38
2022-12-18T10:54:50.882Z,11.90
2022-12-18T10:57:36.233Z,16.60
2022-12-18T11:00:22.901Z,16.40
2022-12-18T11:02:50.312Z,17.13
2022-12-18T11:05:30.390Z,13.80
2022-12-18T11:07:59.044Z,13.15
2022-12-18T11:10:30.510Z,12.90
2022-12-18T11:13:09.466Z,12.43
2022-12-18T11:15:36.218Z,12.45
2022-12-18T11:18:03.295Z,13.93
2022-12-18T11:20:36.288Z,12.82
2022-12-18T11:23:05.975Z,13.15
2022-12-18T11:25:35.691Z,13.07
2022-12-18T11:28:06.823Z,14.07
2022-12-18T11:30:35.625Z,11.38
2022-12-18T11:33:08.453Z,12.60
2022-12-18T11:35:51.236Z,10.85
2022-12-18T11:38:23.423Z,11.55
2022-12-18T11:40:56.112Z,10.82
2022-12-18T11:43:29.817Z,13.00
2022-12-18T11:46:03.611Z,11.20
2022-12-18T11:48:34.987Z,11.80
2022-12-18T11:51:09.486Z,11.15
2022-12-18T11:53:36.232Z,10.57
2022-12-18T11:56:14.111Z,11.20
2022-12-18T11:58:48.471Z,10.32
2022-12-18T12:01:41.979Z,10.80
2022-12-18T12:04:29.720Z,10.98
2022-12-18T12:07:07.981Z,10.68
2022-12-18T12:09:40.506Z,10.30
2022-12-18T12:15:35.266Z,9.82
2022-12-18T12:18:11.577Z,10.05
2022-12-18T12:20:50.726Z,8.80
2022-12-18T12:23:30.013Z,9.27
2022-12-18T12:26:04.218Z,9.25
2022-12-18T12:28:50.329Z,8.07
2022-12-18T12:31:33.155Z,8.15
2022-12-18T12:34:09.094Z,8.10
2022-12-18T12:36:42.392Z,7.80
2022-12-18T12:39:16.888Z,7.65
2022-12-18T12:41:49.800Z,7.07
2022-12-18T12:44:21.398Z,7.85
2022-12-18T12:46:51.237Z,7.25
2022-12-18T12:49:22.191Z,6.95
2022-12-18T12:51:58.100Z,6.68
2022-12-18T12:54:38.885Z,7.72
2022-12-18T12:57:28.831Z,6.95
2022-12-18T13:00:44.704Z,6.38
2022-12-18T13:03:29.260Z,6.53
2022-12-18T13:06:10.388Z,7.30
2022-12-18T13:09:00.260Z,5.88
2022-12-18T13:11:43.053Z,6.20
2022-12-18T13:14:30.400Z,6.03
2022-12-18T13:17:44.738Z,6.03
2022-12-18T13:20:19.954Z,5.35
2022-12-18T13:23:41.826Z,5.25
2022-12-18T13:26:41.391Z,5.40
2022-12-18T13:29:49.975Z,6.00
2022-12-18T13:35:40.312Z,5.55
2022-12-18T13:38:22.111Z,4.60
2022-12-18T13:41:23.014Z,4.93
2022-12-18T13:43:55.352Z,5.07
2022-12-18T13:46:29.302Z,5.45
2022-12-18T13:52:44.626Z,5.28
2022-12-18T13:55:25.153Z,5.07
2022-12-18T14:01:33.861Z,4.95
2022-12-18T14:04:38.149Z,5.45
2022-12-18T14:07:49.222Z,5.65
2022-12-18T14:11:06.419Z,5.20
2022-12-18T14:35:09.816Z,5.88
2022-12-18T14:41:22.872Z,6.10
2022-12-18T14:47:39.083Z,5.97
2022-12-18T14:50:17.581Z,6.07
2022-12-18T14:52:47.505Z,5.90
2022-12-18T14:55:17.118Z,5.85
2022-12-18T14:57:51.186Z,6.07
2022-12-18T15:00:22.276Z,6.20
2022-12-18T15:02:53.920Z,5.68
2022-12-18T15:05:25.813Z,5.85
2022-12-18T15:07:54.160Z,6.50
2022-12-18T15:10:22.482Z,6.18
2022-12-18T15:12:51.004Z,6.47
2022-12-18T15:15:47.566Z,5.38
2022-12-18T15:18:16.688Z,6.82
2022-12-18T15:20:45.752Z,6.20
2022-12-18T15:23:19.652Z,6.05
2022-12-18T15:25:47.458Z,6.28
2022-12-18T15:28:22.888Z,6.10
2022-12-18T15:31:02.813Z,5.55
2022-12-18T15:33:33.044Z,6.45
2022-12-18T15:36:00.508Z,5.72
2022-12-18T15:38:28.120Z,6.10
2022-12-18T15:40:55.189Z,5.85
2022-12-18T15:43:23.658Z,6.30
2022-12-18T15:45:51.012Z,5.30
2022-12-18T15:48:22.765Z,6.32
2022-12-18T15:50:50.919Z,5.70
2022-12-18T15:53:18.443Z,6.40
2022-12-18T15:55:46.635Z,6.88
2022-12-18T16:01:24.106Z,6.18
2022-12-18T16:08:01.021Z,6.78
2022-12-18T16:11:23.006Z,6.38
2022-12-18T16:14:18.369Z,7.18
2022-12-18T16:16:47.384Z,7.60
2022-12-18T16:19:14.119Z,6.90
2022-12-18T16:21:42.771Z,7.68
2022-12-18T16:24:15.784Z,7.43
2022-12-18T16:26:42.930Z,7.30
2022-12-18T16:29:10.034Z,7.03
2022-12-18T16:31:37.694Z,7.28
2022-12-18T16:34:22.834Z,7.25
2022-12-18T16:36:54.040Z,7.03
2022-12-18T16:39:22.998Z,6.80
2022-12-18T16:41:54.100Z,7.93
2022-12-18T16:44:25.740Z,7.20
2022-12-18T16:46:54.137Z,7.15
2022-12-18T16:49:21.126Z,7.28
2022-12-18T16:51:48.117Z,6.65
2022-12-18T16:54:19.936Z,6.90
2022-12-18T16:56:48.766Z,6.95
2022-12-18T16:59:19.308Z,7.55
2022-12-18T17:04:14.454Z,7.45
2022-12-18T17:06:49.853Z,7.80
2022-12-18T17:09:16.891Z,7.28
2022-12-18T17:11:44.060Z,8.32
2022-12-18T17:14:22.150Z,7.88
2022-12-18T17:19:33.491Z,8.02
2022-12-18T17:22:02.304Z,7.60
2022-12-18T17:24:34.828Z,7.15
2022-12-18T17:27:06.022Z,7.40
2022-12-18T17:29:37.642Z,8.20
2022-12-18T17:32:08.802Z,8.05
2022-12-18T17:34:40.888Z,8.93
2022-12-18T17:37:08.022Z,7.00
2022-12-18T17:39:43.451Z,7.70
2022-12-18T17:42:10.907Z,7.80
2022-12-18T17:44:52.563Z,8.93
2022-12-18T17:47:19.640Z,8.00
2022-12-18T17:49:46.537Z,7.63
2022-12-18T17:52:16.290Z,8.13
2022-12-18T17:54:55.234Z,7.45
2022-12-18T17:57:36.966Z,8.10
2022-12-18T18:00:08.174Z,7.60
2022-12-18T18:05:06.061Z,7.40
2022-12-18T18:07:50.559Z,8.03
2022-12-18T18:10:22.222Z,8.32
2022-12-18T18:12:50.700Z,7.72
2022-12-18T18:15:28.197Z,8.15
2022-12-18T18:18:03.537Z,8.27
2022-12-18T18:20:42.775Z,8.38
2022-12-18T18:23:10.044Z,8.00
2022-12-18T18:25:37.199Z,7.80
2022-12-18T18:28:08.609Z,8.48
2022-12-18T18:30:38.459Z,8.30
2022-12-18T18:33:13.724Z,8.35
2022-12-18T18:35:54.413Z,7.95
2022-12-18T18:38:24.313Z,7.68
2022-12-18T18:41:10.603Z,8.85
2022-12-18T18:49:37.921Z,9.00
2022-12-18T18:52:09.525Z,9.00
2022-12-18T18:54:51.927Z,9.10
2022-12-18T18:57:30.114Z,9.77
2022-12-18T19:00:01.434Z,9.52
2022-12-18T19:05:52.567Z,9.52
2022-12-18T19:08:51.450Z,9.25
2022-12-18T19:15:33.643Z,9.43
2022-12-18T19:18:33.575Z,10.43
2022-12-18T19:21:17.598Z,10.30
2022-12-18T19:23:55.991Z,12.10
2022-12-18T19:26:41.378Z,11.52
2022-12-18T19:29:24.238Z,11.50
2022-12-18T19:31:58.811Z,10.98
2022-12-18T19:34:34.688Z,10.73
2022-12-18T19:37:14.200Z,11.40
2022-12-18T19:39:47.315Z,11.15
2022-12-18T19:42:14.488Z,11.88
2022-12-18T19:44:45.803Z,11.73
2022-12-18T19:47:12.777Z,12.13
2022-12-18T19:49:45.952Z,12.68
2022-12-18T19:52:21.651Z,12.43
2022-12-18T19:55:14.578Z,13.02
2022-12-18T19:57:43.124Z,13.48
2022-12-18T20:00:16.914Z,12.55
2022-12-18T20:02:48.758Z,13.38
2022-12-18T20:05:33.354Z,13.83
2022-12-18T20:08:16.162Z,14.05
2022-12-18T20:10:49.462Z,13.68
2022-12-18T20:13:36.793Z,14.07
2022-12-18T20:18:50.566Z,14.43
2022-12-18T20:21:28.179Z,13.80
2022-12-18T20:23:55.181Z,13.75
2022-12-18T20:26:30.035Z,14.20
2022-12-18T20:29:05.099Z,15.32
2022-12-18T20:31:32.221Z,14.55
2022-12-18T20:34:06.045Z,14.88
2022-12-18T20:36:39.803Z,15.48
2022-12-18T20:39:17.791Z,16.05
2022-12-18T20:41:48.863Z,15.30
2022-12-18T20:44:22.699Z,14.55
2022-12-18T20:47:07.446Z,14.50
2022-12-18T20:49:39.548Z,15.35
2022-12-18T20:52:29.435Z,16.00
2022-12-18T20:55:00.345Z,15.40
2022-12-18T20:57:30.687Z,15.43
2022-12-18T21:00:04.797Z,16.65
2022-12-18T21:02:32.116Z,16.40
2022-12-18T21:04:59.145Z,16.42
2022-12-18T21:07:27.807Z,17.95
2022-12-18T21:09:56.519Z,17.35
2022-12-18T21:12:26.152Z,17.92
2022-12-18T21:15:01.466Z,16.67
2022-12-18T21:17:41.118Z,16.92
2022-12-18T21:20:18.549Z,17.08
2022-12-18T21:22:54.074Z,16.73
2022-12-18T21:25:24.268Z,17.67
2022-12-18T21:27:51.044Z,16.73
2022-12-18T21:30:17.838Z,18.35
2022-12-18T21:32:45.819Z,17.58
2022-12-18T21:35:14.419Z,17.25
2022-12-18T21:37:47.467Z,17.85
2022-12-18T21:40:15.783Z,17.13
2022-12-18T21:42:45.576Z,17.52
2022-12-18T21:45:12.679Z,19.35
2022-12-18T21:47:48.052Z,19.35
2022-12-18T21:50:17.570Z,18.88
2022-12-18T21:52:50.279Z,19.42
2022-12-18T21:55:23.264Z,20.10
2022-12-18T21:58:11.091Z,19.42
2022-12-18T22:00:48.564Z,19.75
2022-12-18T22:03:18.646Z,19.55
2022-12-18T22:06:00.648Z,19.77
2022-12-18T22:08:43.582Z,19.48
2022-12-18T22:11:17.027Z,19.70
2022-12-18T22:13:47.518Z,20.92
2022-12-18T22:16:18.076Z,20.67
2022-12-18T22:18:45.119Z,15.43
2022-12-18T22:21:29.624Z,20.52
2022-12-18T22:24:00.917Z,20.15
2022-12-18T22:26:36.504Z,21.17
2022-12-18T22:29:16.172Z,21.75
2022-12-18T22:31:50.772Z,21.65
2022-12-18T22:34:26.168Z,21.95
2022-12-18T22:36:55.382Z,22.75
2022-12-18T22:39:27.000Z,22.77
2022-12-18T22:42:02.990Z,21.50
2022-12-18T22:44:47.633Z,21.98
2022-12-18T22:47:27.995Z,22.95
2022-12-18T22:49:57.102Z,22.48
2022-12-18T22:52:25.897Z,23.45
2022-12-18T22:55:00.429Z,22.40
2022-12-18T22:57:38.175Z,22.73
2022-12-18T23:00:15.743Z,24.23
2022-12-18T23:03:00.737Z,23.05
2022-12-18T23:05:35.386Z,22.95
2022-12-18T23:08:03.077Z,23.52
2022-12-18T23:10:36.933Z,23.42
2022-12-18T23:13:10.916Z,23.67
2022-12-18T23:15:47.936Z,23.45
2022-12-18T23:18:26.772Z,23.33
2022-12-18T23:20:57.964Z,23.33
2022-12-18T23:23:30.727Z,24.40
2022-12-18T23:26:08.164Z,24.25
2022-12-18T23:32:02.583Z,24.75
2022-12-18T23:34:45.948Z,25.05
2022-12-18T23:37:49.982Z,25.23
2022-12-18T23:40:10.149Z,25.15
2022-12-18T23:42:47.855Z,26.35
2022-12-18T23:45:28.148Z,25.92
2022-12-18T23:48:01.389Z,26.17
2022-12-18T23:50:44.194Z,25.67
2022-12-18T23:53:14.698Z,26.17
2022-12-18T23:55:45.997Z,26.65
2022-12-18T23:58:21.859Z,27.02
